Time;durP1;ratioP1;P1;durP2;ratioP2;P2;SDS_P1;SDS_P2;PMS_P1;PMS_P2;Temp;Humidity;BMP_temperature;BMP_pressure;BME280_temperature;BME280_humidity;BME280_pressure;Samples;Min_cycle;Max_cycle;Signal;HPM_P1;HPM_P2
2023/09/20 00:02:25;;;;;;;13.30;2.05;;;;;;;23.02;51.89;99161.59;7311907;19;128741;-37
2023/09/20 00:04:50;;;;;;;75.77;4.27;;;;;;;23.02;51.58;99164.22;7311395;19;131791;-36
2023/09/20 00:07:16;;;;;;;75.00;4.60;;;;;;;23.02;51.38;99174.69;7310776;19;130172;-38
2023/09/20 00:09:41;;;;;;;33.93;2.60;;;;;;;23.02;50.93;99169.44;7309027;19;132273;-37
2023/09/20 00:12:07;;;;;;;73.90;4.73;;;;;;;23.02;51.73;99179.94;7308788;19;129428;-37
2023/09/20 00:14:32;;;;;;;96.77;5.33;;;;;;;23.01;50.76;99173.03;7309897;19;130164;-38
2023/09/20 00:17:00;;;;;;;77.37;5.20;;;;;;;23.02;50.91;99179.94;7310080;19;130882;-36
2023/09/20 00:19:25;;;;;;;34.90;2.92;;;;;;;23.03;51.23;99176.31;7308339;19;129343;-37
2023/09/20 00:21:51;;;;;;;41.80;2.93;;;;;;;23.03;51.60;99177.16;7308983;19;129329;-37
2023/09/20 00:24:16;;;;;;;89.90;5.27;;;;;;;23.01;51.58;99176.47;7309300;19;131743;-37
2023/09/20 00:26:41;;;;;;;67.03;4.50;;;;;;;23.02;52.04;99190.44;7312648;19;130663;-37
2023/09/20 00:29:07;;;;;;;92.57;5.87;;;;;;;23.01;50.86;99178.28;7307371;19;129993;-37
2023/09/20 00:31:33;;;;;;;56.73;3.57;;;;;;;23.00;52.02;99184.50;7307651;19;130984;-37
2023/09/20 00:33:59;;;;;;;106.97;5.77;;;;;;;22.86;51.08;99164.97;7309642;19;129370;-37
2023/09/20 00:36:24;;;;;;;57.43;3.73;;;;;;;22.99;50.77;99191.53;7307693;19;130521;-38
2023/09/20 00:38:51;;;;;;;87.03;5.23;;;;;;;23.00;51.03;99179.28;7309045;19;131895;-37
2023/09/20 00:41:17;;;;;;;52.38;3.45;;;;;;;22.95;51.53;99177.13;7307398;19;129661;-37
2023/09/20 00:43:42;;;;;;;67.03;4.03;;;;;;;22.98;52.00;99182.06;7310149;19;129090;-38
2023/09/20 00:46:09;;;;;;;54.63;3.47;;;;;;;22.98;51.45;99174.19;7310373;19;130402;-37
2023/09/20 00:48:35;;;;;;;;;;;;;;;23.02;53.31;99179.94;7310209;19;129618;-37
2023/09/20 00:51:00;;;;;;;85.38;4.82;;;;;;;22.92;51.07;99168.75;7305810;19;129798;-37
2023/09/20 00:53:26;;;;;;;64.23;3.80;;;;;;;22.99;52.30;99177.63;7309974;19;129089;-38
2023/09/20 00:55:51;;;;;;;33.22;2.28;;;;;;;22.97;51.39;99179.59;7308418;19;131564;-37
2023/09/20 00:58:19;;;;;;;33.50;2.23;;;;;;;22.95;51.80;99164.03;7310627;19;128833;-37
2023/09/20 01:00:45;;;;;;;82.05;4.72;;;;;;;22.84;51.92;99150.38;7312890;19;129463;-38
2023/09/20 01:03:16;;;;;;;98.23;5.50;;;;;;;22.93;53.05;99171.22;7315139;19;130214;-38
2023/09/20 01:05:42;;;;;;;57.38;3.35;;;;;;;22.95;52.00;99168.44;7315397;19;131095;-37
2023/09/20 01:08:07;;;;;;;27.83;2.37;;;;;;;22.95;51.54;99165.81;7317279;19;129517;-36
2023/09/20 01:10:36;;;;;;;62.40;3.67;;;;;;;22.94;52.33;99167.59;7313260;19;129366;-38
2023/09/20 01:13:11;;;;;;;98.32;5.10;;;;;;;22.94;52.61;99172.84;7317041;19;129360;-37
2023/09/20 01:15:37;;;;;;;87.90;4.97;;;;;;;22.93;51.66;99175.63;7314503;19;130413;-37
2023/09/20 01:18:04;;;;;;;80.47;4.95;;;;;;;22.93;52.67;99165.16;7314768;19;128900;-37
2023/09/20 01:20:32;;;;;;;37.65;2.80;;;;;;;22.93;51.97;99162.53;7314684;19;129387;-38
2023/09/20 01:22:58;;;;;;;109.80;6.20;;;;;;;22.95;52.39;99171.06;7314930;19;129960;-37
2023/09/20 01:25:25;;;;;;;92.57;5.38;;;;;;;22.95;51.74;99163.19;7316396;19;130565;-37
2023/09/20 01:27:55;;;;;;;33.00;2.47;;;;;;;22.94;52.69;99166.81;7315980;19;131433;-38
2023/09/20 01:30:25;;;;;;;34.22;2.45;;;;;;;22.94;52.01;99169.44;7313448;19;129407;-38
2023/09/20 01:32:52;;;;;;;69.10;3.90;;;;;;;22.92;51.86;99160.91;7314505;19;132038;-37
2023/09/20 01:35:17;;;;;;;96.20;5.28;;;;;;;22.93;52.31;99157.28;7314452;19;130567;-37
2023/09/20 01:37:43;;;;;;;12.07;1.40;;;;;;;22.93;51.97;99159.91;7314667;19;129739;-37
2023/09/20 01:40:18;;;;;;;64.93;4.15;;;;;;;22.92;52.79;99163.50;7314454;19;129991;-37
2023/09/20 01:42:44;;;;;;;50.55;3.22;;;;;;;22.93;52.23;99159.91;7313003;19;130187;-37
2023/09/20 01:45:16;;;;;;;148.70;7.95;;;;;;;22.91;53.78;99151.38;7312038;19;129606;-37
2023/09/20 01:47:52;;;;;;;35.78;2.22;;;;;;;22.92;53.80;99158.28;7314361;19;130293;-37
2023/09/20 01:50:19;;;;;;;39.03;2.78;;;;;;;22.91;51.77;99149.56;7315419;19;129701;-37
2023/09/20 01:52:49;;;;;;;31.13;2.42;;;;;;;22.92;53.16;99158.28;7314073;19;131080;-37
2023/09/20 01:55:17;;;;;;;76.15;4.43;;;;;;;22.92;52.11;99150.41;7312588;19;130758;-37
2023/09/20 01:57:45;;;;;;;101.82;5.53;;;;;;;22.92;53.27;99147.78;7314156;19;129429;-37
2023/09/20 02:00:28;;;;;;;56.97;3.55;;;;;;;22.90;53.13;99150.56;7312787;19;129197;-37
2023/09/20 02:02:56;;;;;;;53.88;3.25;;;;;;;22.91;52.61;99151.38;7312044;19;130819;-38
2023/09/20 02:05:25;;;;;;;165.23;9.27;;;;;;;22.77;52.50;99133.63;7309046;19;130420;-38
2023/09/20 02:07:53;;;;;;;28.70;2.17;;;;;;;22.73;52.75;99122.66;7310906;19;129028;-37
2023/09/20 02:10:19;;;;;;;98.68;5.05;;;;;;;22.89;52.25;99153.34;7312251;19;129398;-38
2023/09/20 02:12:56;;;;;;;59.20;3.90;;;;;;;22.88;54.68;99154.31;7313082;19;129314;-37
2023/09/20 02:15:26;;;;;;;55.33;3.38;;;;;;;22.91;54.14;99159.22;7312562;19;130465;-38
2023/09/20 02:17:52;;;;;;;125.80;6.90;;;;;;;22.89;52.56;99153.34;7308726;19;132175;-38
2023/09/20 02:20:31;;;;;;;59.13;3.53;;;;;;;22.88;52.99;99162.19;7312363;19;130748;-36
2023/09/20 02:22:57;;;;;;;119.07;6.43;;;;;;;22.88;52.91;99155.13;7313806;19;131526;-37
2023/09/20 02:25:26;;;;;;;40.87;2.83;;;;;;;22.75;52.15;99138.22;7313760;19;130383;-37
2023/09/20 02:27:53;;;;;;;32.35;2.38;;;;;;;22.89;53.10;99169.06;7313919;19;129191;-37
2023/09/20 02:30:24;;;;;;;140.85;7.75;;;;;;;22.90;52.16;99160.22;7308502;19;129896;-38
2023/09/20 02:32:52;;;;;;;137.10;7.05;;;;;;;22.88;52.70;99167.41;7312359;19;130720;-38
2023/09/20 02:35:18;;;;;;;218.02;10.95;;;;;;;22.88;53.58;99168.25;7308898;19;129707;-38
2023/09/20 02:37:46;;;;;;;43.13;3.13;;;;;;;22.89;52.34;99171.69;7313483;19;130082;-37
2023/09/20 02:40:13;;;;;;;59.03;3.58;;;;;;;22.86;52.29;99154.47;7312178;19;129611;-37
2023/09/20 02:42:49;;;;;;;53.67;3.05;;;;;;;22.89;54.76;99166.47;7312513;19;129211;-38
2023/09/20 02:45:24;;;;;;;111.70;6.18;;;;;;;22.88;53.33;99162.19;7311775;19;130496;-37
2023/09/20 02:47:51;;;;;;;38.30;2.75;;;;;;;22.73;52.67;99145.41;7311011;19;129335;-37
2023/09/20 02:50:18;;;;;;;;;;;;;;;22.93;54.55;99175.63;7312967;19;130260;-37
2023/09/20 02:52:47;;;;;;;54.08;3.35;;;;;;;22.90;52.71;99173.34;7311927;19;130915;-37
2023/09/20 02:55:13;;;;;;;81.32;4.53;;;;;;;22.88;53.01;99180.53;7311106;19;131274;-37
2023/09/20 02:57:44;;;;;;;116.78;5.95;;;;;;;22.75;53.14;99156.56;7313390;19;129526;-38
2023/09/20 03:00:18;;;;;;;68.32;4.32;;;;;;;22.87;54.17;99177.06;7311972;19;129095;-38
2023/09/20 03:02:49;;;;;;;42.17;2.83;;;;;;;22.84;54.00;99177.38;7312388;19;130149;-37
2023/09/20 03:05:35;;;;;;;46.17;3.33;;;;;;;22.86;55.19;99169.38;7311683;19;130475;-37
2023/09/20 03:08:04;;;;;;;46.17;2.80;;;;;;;22.86;52.80;99174.59;7311832;19;129574;-37
2023/09/20 03:10:31;;;;;;;74.57;4.13;;;;;;;22.86;52.94;99177.22;7310788;19;128976;-38
2023/09/20 03:13:00;;;;;;;49.50;3.15;;;;;;;22.85;53.17;99173.81;7313720;19;130713;-38
2023/09/20 03:15:27;;;;;;;31.83;2.20;;;;;;;22.84;52.55;99166.91;7313097;19;131097;-37
2023/09/20 03:18:00;;;;;;;43.05;2.88;;;;;;;22.85;54.62;99170.34;7313675;19;132562;-37
2023/09/20 03:20:26;;;;;;;59.85;3.60;;;;;;;22.85;52.99;99167.75;7308122;19;130897;-38
2023/09/20 03:22:57;;;;;;;70.35;3.78;;;;;;;22.69;54.31;99137.03;7311879;19;130108;-38
2023/09/20 03:25:23;;;;;;;91.68;5.18;;;;;;;22.85;53.07;99167.75;7311171;19;130605;-37
2023/09/20 03:27:50;;;;;;;188.35;9.50;;;;;;;22.84;53.02;99161.66;7304603;19;129848;-38
2023/09/20 03:30:17;;;;;;;72.75;4.22;;;;;;;22.69;52.43;99131.00;7304914;19;130227;-37
2023/09/20 03:32:44;;;;;;;;;;;;;;;22.90;54.64;99160.22;7312360;19;130322;-37
2023/09/20 03:35:12;;;;;;;38.28;2.78;;;;;;;22.86;52.86;99169.38;7312731;19;129912;-38
2023/09/20 03:37:39;;;;;;;36.22;2.47;;;;;;;22.84;53.09;99168.72;7311092;19;130489;-37
2023/09/20 03:40:10;;;;;;;53.45;3.38;;;;;;;22.81;53.04;99166.41;7310860;19;129507;-37
2023/09/20 03:42:40;;;;;;;83.43;4.53;;;;;;;22.71;53.68;99144.75;7311505;19;130259;-37
2023/09/20 03:45:16;;;;;;;78.68;4.20;;;;;;;22.82;54.29;99162.81;7309732;19;130636;-38
2023/09/20 03:47:47;;;;;;;40.63;2.60;;;;;;;22.82;54.09;99160.19;7313051;19;129102;-37
2023/09/20 03:50:13;;;;;;;84.57;4.68;;;;;;;22.81;52.85;99161.16;7308535;19;128877;-38
2023/09/20 03:52:39;;;;;;;44.63;2.87;;;;;;;22.70;53.57;99138.69;7311707;19;130322;-37
2023/09/20 03:55:07;;;;;;;98.10;4.80;;;;;;;22.81;53.98;99155.91;7305857;19;130172;-37
2023/09/20 03:57:33;;;;;;;47.45;2.83;;;;;;;22.82;52.71;99162.81;7312471;19;129154;-37
2023/09/20 04:00:06;;;;;;;53.67;3.53;;;;;;;22.80;53.32;99160.34;7307513;19;129368;-38
2023/09/20 04:02:32;;;;;;;38.55;2.30;;;;;;;22.79;53.34;99157.91;7311150;19;130165;-37
2023/09/20 04:05:00;;;;;;;86.63;4.60;;;;;;;22.77;53.47;99151.97;7309336;19;130517;-37
2023/09/20 04:07:26;;;;;;;92.03;5.28;;;;;;;22.81;53.39;99171.63;7311318;19;128926;-37
2023/09/20 04:09:53;;;;;;;39.10;2.45;;;;;;;22.69;53.93;99147.50;7309943;19;129517;-37
2023/09/20 04:12:19;;;;;;;70.60;4.45;;;;;;;22.82;53.57;99168.06;7309368;19;130087;-38
2023/09/20 04:14:44;;;;;;;144.97;7.33;;;;;;;22.74;53.45;99155.72;7307486;19;130246;-38
2023/09/20 04:17:10;;;;;;;68.93;3.60;;;;;;;22.64;53.28;99138.50;7308946;19;129013;-37
2023/09/20 04:19:39;;;;;;;52.35;3.17;;;;;;;22.82;53.95;99165.44;7309999;19;129209;-38
2023/09/20 04:22:06;;;;;;;38.15;2.55;;;;;;;22.82;53.45;99162.81;7304938;19;130226;-37
2023/09/20 04:24:32;;;;;;;63.92;3.40;;;;;;;22.80;52.60;99157.75;7309512;19;129581;-38
2023/09/20 04:26:58;;;;;;;;;;;;;;;22.84;54.13;99158.25;7311126;19;128980;-38
2023/09/20 04:29:24;;;;;;;98.95;5.55;;;;;;;22.82;52.63;99162.81;7309807;19;129754;-37
2023/09/20 04:31:50;;;;;;;29.88;2.03;;;;;;;22.81;52.00;99155.91;7304157;19;130111;-37
2023/09/20 04:34:16;;;;;;;110.80;6.07;;;;;;;22.85;52.95;99159.88;7306064;19;129409;-37
2023/09/20 04:36:44;;;;;;;89.38;4.80;;;;;;;22.85;52.65;99147.59;7305553;19;130420;-38
2023/09/20 04:39:11;;;;;;;36.03;2.45;;;;;;;22.88;52.55;99156.94;7309390;19;128744;-38
2023/09/20 04:41:37;;;;;;;90.35;5.13;;;;;;;22.90;53.14;99157.59;7301917;19;130323;-38
2023/09/20 04:44:04;;;;;;;66.13;3.53;;;;;;;22.91;53.64;99151.38;7310780;19;129167;-37
2023/09/20 04:46:30;;;;;;;53.17;3.17;;;;;;;22.89;53.48;99155.97;7307749;19;130912;-37
2023/09/20 04:48:55;;;;;;;62.97;3.67;;;;;;;22.92;52.88;99159.06;7310348;19;129100;-37
2023/09/20 04:51:20;;;;;;;86.30;5.03;;;;;;;22.94;53.68;99157.13;7305534;19;130099;-37
2023/09/20 04:53:46;;;;;;;66.35;3.42;;;;;;;22.95;53.10;99168.44;7308341;19;130428;-38
2023/09/20 04:56:11;;;;;;;64.13;3.53;;;;;;;22.95;52.94;99165.81;7302386;19;129566;-38
2023/09/20 04:58:36;;;;;;;47.70;2.95;;;;;;;22.96;52.94;99164.81;7306291;19;129037;-37
2023/09/20 05:01:02;;;;;;;51.63;2.92;;;;;;;22.97;53.40;99175.16;7301771;19;132218;-38
2023/09/20 05:03:29;;;;;;;114.67;6.37;;;;;;;22.98;53.54;99178.59;7307358;19;129259;-37
2023/09/20 05:05:54;;;;;;;;;;;;;;;23.03;54.54;99181.56;7307009;19;130119;-38
2023/09/20 05:08:20;;;;;;;68.90;4.20;;;;;;;22.87;53.47;99152.69;7305871;19;129251;-37
2023/09/20 05:10:45;;;;;;;99.00;5.20;;;;;;;22.99;53.26;99169.78;7306808;19;130149;-38
2023/09/20 05:13:11;;;;;;;76.07;3.97;;;;;;;23.00;53.34;99180.09;7308183;19;129636;-38
2023/09/20 05:15:37;;;;;;;51.43;3.10;;;;;;;23.01;54.03;99178.28;7307904;19;129279;-38
2023/09/20 05:18:04;;;;;;;39.30;2.55;;;;;;;23.00;53.76;99185.34;7303998;19;130109;-37
2023/09/20 05:20:31;;;;;;;72.03;4.35;;;;;;;23.00;53.32;99177.47;7304738;19;129528;-38
2023/09/20 05:22:57;;;;;;;;;;;;;;;22.96;54.92;99170.06;7306944;19;130142;-38
2023/09/20 05:25:23;;;;;;;81.85;4.78;;;;;;;23.00;53.81;99198.44;7305100;19;129827;-38
2023/09/20 05:27:49;;;;;;;36.83;2.17;;;;;;;23.00;53.93;99192.38;7308432;19;129609;-36
2023/09/20 05:30:16;;;;;;;56.75;3.33;;;;;;;23.01;54.39;99194.00;7302794;19;130829;-36
2023/09/20 05:32:43;;;;;;;95.68;4.82;;;;;;;23.02;54.11;99190.44;7309838;19;131106;-40
2023/09/20 05:35:10;;;;;;;74.50;4.13;;;;;;;23.03;54.59;99194.69;7308062;19;129814;-39
2023/09/20 05:37:38;;;;;;;42.03;2.47;;;;;;;23.03;54.22;99192.06;7304037;19;129485;-39
2023/09/20 05:40:07;;;;;;;49.80;3.00;;;;;;;23.03;54.37;99192.06;7307337;19;129596;-40
2023/09/20 05:42:32;;;;;;;87.68;4.63;;;;;;;23.01;54.47;99199.25;7304146;19;131000;-41
2023/09/20 05:44:58;;;;;;;78.03;4.40;;;;;;;22.94;53.49;99188.56;7312351;19;130382;-39
2023/09/20 05:47:23;;;;;;;85.00;4.80;;;;;;;23.05;54.03;99205.84;7311597;19;129654;-37
2023/09/20 05:49:49;;;;;;;44.17;2.63;;;;;;;22.93;53.92;99189.56;7311024;19;130181;-37
2023/09/20 05:52:15;;;;;;;80.10;4.07;;;;;;;23.05;53.55;99200.59;7313287;19;130797;-38
2023/09/20 05:54:44;;;;;;;26.80;1.70;;;;;;;23.06;54.85;99202.22;7311881;19;129907;-39
2023/09/20 05:57:12;;;;;;;20.27;1.52;;;;;;;23.06;53.69;99207.47;7314733;19;128935;-41
2023/09/20 05:59:37;;;;;;;42.92;2.45;;;;;;;23.02;53.42;99198.28;7314708;19;130096;-39
2023/09/20 06:02:03;;;;;;;86.87;4.13;;;;;;;23.06;54.04;99197.81;7310419;19;129479;-37
2023/09/20 06:04:29;;;;;;;74.40;4.63;;;;;;;23.06;52.89;99197.81;7315790;19;129472;-40
2023/09/20 06:06:54;;;;;;;33.07;2.30;;;;;;;23.06;53.49;99210.09;7314032;19;129806;-39
2023/09/20 06:09:20;;;;;;;66.50;3.87;;;;;;;23.06;54.10;99207.47;7311669;19;132616;-36
2023/09/20 06:11:45;;;;;;;75.70;3.80;;;;;;;23.05;53.99;99200.59;7312189;19;129525;-38
2023/09/20 06:14:10;;;;;;;43.27;2.87;;;;;;;23.06;53.71;99217.94;7310736;19;129038;-40
2023/09/20 06:16:36;;;;;;;37.60;2.40;;;;;;;23.05;53.69;99211.06;7312175;19;128978;-40
2023/09/20 06:19:01;;;;;;;117.60;6.03;;;;;;;23.06;53.20;99217.94;7310719;19;129156;-40
2023/09/20 06:21:26;;;;;;;119.03;6.30;;;;;;;23.05;53.62;99211.06;7311126;19;129281;-38
2023/09/20 06:23:52;;;;;;;54.85;3.15;;;;;;;23.05;53.95;99213.69;7315527;19;128927;-40
2023/09/20 06:26:18;;;;;;;32.63;2.03;;;;;;;23.05;53.15;99216.31;7310495;19;129804;-40
2023/09/20 06:28:44;;;;;;;40.45;2.38;;;;;;;23.05;53.53;99211.06;7315173;19;129065;-37
2023/09/20 06:31:13;;;;;;;70.55;4.07;;;;;;;23.10;53.69;99221.91;7308900;19;130674;-39
2023/09/20 06:33:39;;;;;;;11.48;1.23;;;;;;;23.14;53.52;99226.69;7314872;19;130716;-40
2023/09/20 06:36:05;;;;;;;61.80;3.40;;;;;;;23.16;52.69;99223.91;7310715;19;129860;-40
2023/09/20 06:38:30;;;;;;;118.20;6.23;;;;;;;23.16;52.53;99213.41;7312027;19;129347;-41
2023/09/20 06:40:56;;;;;;;54.93;3.73;;;;;;;23.17;52.41;99226.34;7312870;19;131047;-37
2023/09/20 06:43:22;;;;;;;88.00;5.03;;;;;;;23.18;52.17;99222.78;7313206;19;129545;-40
2023/09/20 06:45:52;;;;;;;52.83;3.27;;;;;;;23.20;52.74;99225.22;7309453;19;130924;-40
2023/09/20 06:48:22;;;;;;;85.95;4.70;;;;;;;23.24;52.40;99231.78;7310638;19;132267;-38
2023/09/20 06:50:52;;;;;;;75.90;4.40;;;;;;;23.24;51.79;99231.78;7312990;19;131177;-40
2023/09/20 06:53:18;;;;;;;58.25;3.35;;;;;;;23.25;52.10;99223.75;7313476;19;130674;-40
2023/09/20 06:55:44;;;;;;;71.13;4.43;;;;;;;23.28;51.63;99219.22;7311417;19;129405;-39
2023/09/20 06:58:10;;;;;;;36.70;2.70;;;;;;;23.25;51.98;99223.75;7313927;19;129373;-40
2023/09/20 07:00:35;;;;;;;118.73;6.47;;;;;;;23.25;51.78;99220.34;7311979;19;130823;-38
2023/09/20 07:03:02;;;;;;;72.97;4.13;;;;;;;23.25;52.46;99225.56;7310701;19;129436;-36
2023/09/20 07:05:28;;;;;;;;;;;;;;;23.17;53.92;99200.13;7312497;19;129392;-39
2023/09/20 07:07:54;;;;;;;53.92;3.40;;;;;;;23.31;51.83;99224.13;7315226;19;129030;-40
2023/09/20 07:10:21;;;;;;;59.33;3.87;;;;;;;23.31;52.22;99216.25;7309264;19;130313;-37
2023/09/20 07:12:47;;;;;;;80.97;4.85;;;;;;;23.28;51.94;99217.41;7313315;19;129197;-40
2023/09/20 07:15:15;;;;;;;49.45;3.38;;;;;;;23.31;52.15;99217.09;7309663;19;130290;-39
2023/09/20 07:17:42;;;;;;;70.57;4.18;;;;;;;23.31;51.84;99209.22;7309858;19;130695;-40
2023/09/20 07:20:14;;;;;;;69.15;4.03;;;;;;;23.27;51.84;99215.75;7312657;19;129266;-39
2023/09/20 07:22:41;;;;;;;39.08;2.63;;;;;;;23.31;52.22;99217.09;7313948;19;128784;-38
2023/09/20 07:25:07;;;;;;;37.95;2.78;;;;;;;23.33;52.47;99215.13;7310749;19;130112;-40
2023/09/20 07:27:33;;;;;;;68.13;4.33;;;;;;;23.35;51.66;99221.06;7309039;19;129304;-40
2023/09/20 07:29:59;;;;;;;90.03;5.00;;;;;;;23.28;51.63;99217.41;7313049;19;129543;-38
2023/09/20 07:32:25;;;;;;;;;;;;;;;23.29;54.48;99226.13;7309705;19;130951;-38
2023/09/20 07:34:57;;;;;;;68.90;4.15;;;;;;;23.13;52.26;99200.63;7313817;19;129913;-39
2023/09/20 07:37:25;;;;;;;51.78;3.58;;;;;;;23.23;52.45;99214.41;7309456;19;130942;-40
2023/09/20 07:39:51;;;;;;;149.35;8.00;;;;;;;23.20;52.51;99218.16;7307697;19;131535;-40
2023/09/20 07:42:16;;;;;;;50.37;3.03;;;;;;;23.25;52.21;99213.25;7311959;19;129406;-39
2023/09/20 07:44:43;;;;;;;39.80;2.73;;;;;;;23.30;51.70;99219.88;7311609;19;129435;-39
2023/09/20 07:47:09;;;;;;;40.80;2.72;;;;;;;23.27;52.41;99213.13;7310275;19;130846;-40
2023/09/20 07:49:35;;;;;;;114.53;6.20;;;;;;;23.32;52.64;99223.97;7311698;19;131098;-37
2023/09/20 07:52:01;;;;;;;36.10;2.60;;;;;;;23.33;52.14;99214.31;7310182;19;129147;-38
2023/09/20 07:54:27;;;;;;;97.87;6.07;;;;;;;23.32;52.32;99218.72;7310768;19;129211;-36
2023/09/20 07:56:52;;;;;;;42.90;2.87;;;;;;;23.36;52.31;99213.97;7308313;19;131142;-40
2023/09/20 07:59:23;;;;;;;107.43;5.63;;;;;;;23.37;52.75;99216.44;7311635;19;130774;-38
2023/09/20 08:01:50;;;;;;;45.92;2.97;;;;;;;23.38;52.95;99212.03;7310948;19;129438;-36
2023/09/20 08:04:17;;;;;;;51.83;3.20;;;;;;;23.36;52.84;99214.81;7313048;19;129645;-40
2023/09/20 08:06:42;;;;;;;;;;;;;;;23.39;54.20;99214.47;7311776;19;133471;-39
2023/09/20 08:09:07;;;;;;;61.53;3.42;;;;;;;23.40;52.59;99210.06;7312410;19;130374;-40
2023/09/20 08:11:33;;;;;;;57.50;3.70;;;;;;;23.28;53.00;99192.97;7309068;19;130530;-37
2023/09/20 08:14:01;;;;;;;34.93;2.33;;;;;;;23.33;52.55;99203.81;7314114;19;129064;-40
2023/09/20 08:16:35;;;;;;;151.70;8.68;;;;;;;23.38;52.66;99205.00;7306661;19;129972;-39
2023/09/20 08:21:33;;;;;;;159.68;8.00;;;;;;;23.28;53.10;99196.44;7307338;19;130519;-36
2023/09/20 09:00:34;;;;;;;47.08;2.95;;;;;;;23.38;53.23;99199.75;7307296;19;131510;-39
2023/09/20 09:03:04;;;;;;;29.95;2.03;;;;;;;23.45;53.75;99197.28;7311484;19;129945;-40
2023/09/20 09:05:31;;;;;;;50.35;3.10;;;;;;;23.44;53.57;99201.72;7308448;19;129197;-38
2023/09/20 09:08:03;;;;;;;33.05;2.08;;;;;;;23.33;54.36;99181.03;7310352;19;129834;-37
2023/09/20 09:10:29;;;;;;;91.70;5.07;;;;;;;23.44;53.22;99196.47;7308272;19;130361;-39
2023/09/20 09:12:55;;;;;;;35.37;2.47;;;;;;;23.46;53.33;99194.50;7310309;19;129621;-40
2023/09/20 09:15:23;;;;;;;40.08;2.83;;;;;;;23.44;53.28;99191.22;7310470;19;129227;-40
2023/09/20 09:17:48;;;;;;;51.67;3.17;;;;;;;23.34;53.29;99190.53;7304191;19;129516;-38
2023/09/20 09:20:15;;;;;;;83.90;4.40;;;;;;;23.45;54.44;99189.41;7313653;19;129524;-39
2023/09/20 09:22:42;;;;;;;53.40;3.75;;;;;;;23.37;53.40;99163.19;7315647;19;130907;-39
2023/09/20 09:25:18;;;;;;;81.90;4.45;;;;;;;23.46;54.48;99177.94;7314873;19;128931;-39
2023/09/20 09:27:44;;;;;;;58.50;3.80;;;;;;;23.38;53.98;99157.75;7316615;19;129878;-40
2023/09/20 09:30:16;;;;;;;75.20;3.97;;;;;;;23.53;52.74;99177.13;7314920;19;130174;-40
2023/09/20 09:32:43;;;;;;;133.98;7.00;;;;;;;23.54;52.80;99168.28;7314963;19;129549;-40
2023/09/20 09:35:09;;;;;;;51.05;3.03;;;;;;;23.51;53.69;99171.22;7314473;19;129664;-40
2023/09/20 09:37:36;;;;;;;46.80;3.00;;;;;;;23.50;53.15;99169.59;7312274;19;128744;-39
2023/09/20 09:40:04;;;;;;;77.13;4.05;;;;;;;23.55;53.38;99167.28;7313943;19;130160;-40
2023/09/20 09:42:30;;;;;;;55.65;3.28;;;;;;;23.57;53.38;99157.44;7315411;19;130198;-38
2023/09/20 09:44:56;;;;;;;40.90;2.63;;;;;;;23.57;52.83;99162.69;7315565;19;129138;-40
2023/09/20 09:47:22;;;;;;;72.33;4.30;;;;;;;23.49;52.77;99156.63;7314491;19;130922;-39
2023/09/20 09:49:50;;;;;;;51.40;3.05;;;;;;;23.51;53.22;99163.34;7313446;19;131101;-41
2023/09/20 09:52:17;;;;;;;72.80;3.95;;;;;;;23.55;53.33;99159.41;7315729;19;130910;-38
2023/09/20 09:54:46;;;;;;;41.40;2.85;;;;;;;23.51;53.57;99160.72;7315020;19;130513;-41
2023/09/20 09:57:12;;;;;;;18.77;1.63;;;;;;;23.52;53.46;99157.13;7314029;19;129241;-39
2023/09/20 09:59:39;;;;;;;101.30;5.77;;;;;;;23.54;53.46;99144.66;7314102;19;130193;-39
2023/09/20 10:02:17;;;;;;;72.18;3.95;;;;;;;23.40;53.53;99121.69;7313606;19;130313;-40
2023/09/20 10:04:46;;;;;;;134.75;7.20;;;;;;;23.50;53.26;99132.88;7312175;19;129245;-39
2023/09/20 10:07:16;;;;;;;49.17;2.95;;;;;;;23.57;53.63;99141.69;7314361;19;129124;-37
2023/09/20 10:09:48;;;;;;;69.82;4.30;;;;;;;23.55;53.34;99138.41;7311064;19;130094;-40
2023/09/20 10:12:19;;;;;;;39.35;2.60;;;;;;;23.55;53.63;99133.16;7309627;19;129791;-38
2023/09/20 10:14:45;;;;;;;94.35;4.93;;;;;;;23.56;53.71;99132.19;7315076;19;128837;-38
2023/09/20 10:17:17;;;;;;;46.78;2.83;;;;;;;23.41;54.19;99109.38;7312184;19;129221;-40
2023/09/20 10:19:42;;;;;;;55.72;3.65;;;;;;;23.59;53.96;99137.13;7312497;19;130113;-40
2023/09/20 10:22:13;;;;;;;37.73;2.37;;;;;;;23.52;53.81;99136.13;7309132;19;130341;-38
2023/09/20 10:25:01;;;;;;;116.18;5.82;;;;;;;23.44;54.19;99109.06;7314869;19;129142;-40
2023/09/20 10:27:30;;;;;;;;;;;;;;;23.47;55.30;99133.16;7311740;19;129101;-39
2023/09/20 10:30:09;;;;;;;68.47;3.97;;;;;;;23.47;53.66;99127.91;7312931;19;134729;-39
2023/09/20 10:35:32;;;;;;;71.53;4.18;;;;;;;23.47;52.86;99121.88;7333020;19;129072;-63
2023/09/20 10:38:10;;;;;;;75.32;4.30;;;;;;;23.19;52.43;99113.41;7334792;19;131561;-64
2023/09/20 10:40:45;;;;;;;77.75;4.65;;;;;;;23.39;55.05;99114.78;7342291;19;130812;-66
2023/09/20 10:43:25;;;;;;;74.32;4.78;;;;;;;23.37;53.83;99110.72;7341834;19;129682;-65
2023/09/20 10:45:51;;;;;;;41.67;2.92;;;;;;;23.26;52.75;99119.66;7344524;19;129454;-64
2023/09/20 10:48:26;;;;;;;53.22;3.45;;;;;;;23.34;54.33;99111.84;7341878;19;129595;-63
2023/09/20 10:50:57;;;;;;;91.35;5.07;;;;;;;23.33;53.51;99110.22;7344962;19;129058;-62
2023/09/20 10:53:50;;;;;;;97.38;5.40;;;;;;;23.39;55.23;99114.78;7344428;19;129582;-65
2023/09/20 10:56:53;;;;;;;58.17;3.50;;;;;;;23.41;55.58;99107.59;7343879;19;129607;-65
2023/09/20 10:59:21;;;;;;;63.50;3.60;;;;;;;23.48;53.02;99103.34;7346534;19;129145;-65
2023/09/20 11:01:50;;;;;;;51.38;3.25;;;;;;;23.41;53.07;99097.09;7343542;19;131954;-64
2023/09/20 11:04:15;;;;;;;61.03;3.65;;;;;;;23.35;52.53;99100.38;7349261;19;129562;-64
2023/09/20 11:06:52;;;;;;;94.30;5.40;;;;;;;23.43;54.50;99099.56;7344893;19;129300;-63
2023/09/20 11:09:20;;;;;;;64.73;3.93;;;;;;;23.46;52.58;99096.59;7343324;19;130427;-63
2023/09/20 11:11:46;;;;;;;70.78;4.05;;;;;;;23.45;53.18;99103.66;7341676;19;130138;-63
2023/09/20 11:14:15;;;;;;;133.07;7.38;;;;;;;23.49;52.13;99094.47;7344047;19;130059;-63
2023/09/20 11:16:42;;;;;;;75.85;4.45;;;;;;;23.54;52.79;99086.09;7342970;19;133075;-61
2023/09/20 11:19:10;;;;;;;103.72;5.80;;;;;;;23.55;52.53;99085.94;7315793;19;131778;-62
2023/09/20 11:21:36;;;;;;;85.28;4.63;;;;;;;24.21;51.29;99094.41;7343559;19;129587;-62
2023/09/20 11:24:01;;;;;;;170.17;8.57;;;;;;;24.66;50.16;99085.06;7334161;19;130115;-62
2023/09/20 11:26:27;;;;;;;47.53;3.27;;;;;;;24.01;51.80;99090.53;7344328;19;130284;-63
2023/09/20 11:28:54;;;;;;;69.43;3.80;;;;;;;23.82;52.73;99085.59;7345601;19;129013;-61
2023/09/20 11:31:35;;;;;;;60.17;3.80;;;;;;;23.72;53.45;99081.50;7344870;19;130033;-62
2023/09/20 11:34:03;;;;;;;88.38;4.75;;;;;;;23.67;52.99;99076.75;7344717;19;129147;-63
2023/09/20 11:36:29;;;;;;;50.60;2.60;;;;;;;23.56;52.47;99071.84;7344824;19;129004;-62
2023/09/20 11:38:54;;;;;;;65.85;3.83;;;;;;;23.44;53.49;99070.53;7346392;19;128866;-63
2023/09/20 11:41:24;;;;;;;74.63;4.43;;;;;;;23.48;53.15;99071.84;7343047;19;130183;-62
2023/09/20 11:43:55;;;;;;;55.85;3.50;;;;;;;23.48;53.37;99061.34;7344594;19;132155;-63
2023/09/20 11:46:20;;;;;;;79.15;4.45;;;;;;;23.46;52.70;99063.31;7319931;19;129102;-61
2023/09/20 11:48:50;;;;;;;63.53;3.60;;;;;;;23.55;53.04;99051.03;7317020;19;128875;-63
2023/09/20 11:51:17;;;;;;;34.80;2.53;;;;;;;23.55;52.81;99051.81;7317063;19;129086;-64
2023/09/20 11:53:45;;;;;;;82.68;4.68;;;;;;;23.55;52.76;99045.78;7313166;19;129270;-64
2023/09/20 11:56:11;;;;;;;76.75;4.45;;;;;;;23.58;52.49;99050.69;7316994;19;129554;-62
2023/09/20 11:58:37;;;;;;;107.83;6.03;;;;;;;23.58;52.91;99045.44;7314987;19;130639;-64
2023/09/20 12:01:06;;;;;;;63.07;3.57;;;;;;;23.63;52.71;99035.25;7320859;19;129380;-63
2023/09/20 12:03:33;;;;;;;90.38;5.78;;;;;;;23.67;53.29;99042.63;7313836;19;129204;-62
2023/09/20 12:05:58;;;;;;;65.90;3.88;;;;;;;23.52;53.11;99041.66;7317281;19;129280;-63